createdAt,value
2022-10-25T00:00:42.607Z,100.00
2022-10-25T00:03:10.858Z,100.00
2022-10-25T00:05:45.972Z,100.00
2022-10-25T00:08:12.847Z,100.00
2022-10-25T00:10:39.406Z,100.00
2022-10-25T00:13:06.398Z,100.00
2022-10-25T00:15:33.120Z,100.00
2022-10-25T00:18:01.066Z,100.00
2022-10-25T00:20:27.691Z,100.00
2022-10-25T00:22:54.314Z,100.00
2022-10-25T00:25:21.102Z,100.00
2022-10-25T00:27:47.775Z,100.00
2022-10-25T00:30:15.142Z,100.00
2022-10-25T00:32:41.899Z,100.00
2022-10-25T00:35:09.055Z,100.00
2022-10-25T00:37:36.380Z,100.00
2022-10-25T00:40:04.498Z,100.00
2022-10-25T00:42:31.174Z,100.00
2022-10-25T00:45:01.799Z,100.00
2022-10-25T00:47:40.450Z,100.00
2022-10-25T00:50:13.197Z,100.00
2022-10-25T00:52:42.886Z,100.00
2022-10-25T00:55:11.920Z,100.00
2022-10-25T00:57:47.416Z,100.00
2022-10-25T01:00:14.807Z,100.00
2022-10-25T01:02:42.114Z,100.00
2022-10-25T01:05:10.039Z,100.00
2022-10-25T01:07:37.126Z,100.00
2022-10-25T01:10:03.931Z,100.00
2022-10-25T01:12:30.954Z,100.00
2022-10-25T01:15:06.362Z,100.00
2022-10-25T01:24:35.116Z,100.00
2022-10-25T01:27:36.418Z,100.00
2022-10-25T01:30:28.221Z,100.00
2022-10-25T01:33:16.880Z,100.00
2022-10-25T01:36:17.867Z,100.00
2022-10-25T01:39:43.041Z,100.00
2022-10-25T01:42:57.384Z,100.00
2022-10-25T01:46:11.327Z,100.00
2022-10-25T01:48:53.589Z,100.00
2022-10-25T01:51:42.038Z,100.00
2022-10-25T01:54:36.260Z,100.00
2022-10-25T01:57:48.773Z,100.00
2022-10-25T02:00:32.658Z,100.00
2022-10-25T02:03:55.794Z,100.00
2022-10-25T02:07:00.977Z,100.00
2022-10-25T02:10:19.444Z,100.00
2022-10-25T02:16:39.779Z,100.00
2022-10-25T02:19:33.627Z,100.00
2022-10-25T02:22:39.395Z,100.00
2022-10-25T02:25:17.094Z,100.00
2022-10-25T02:28:04.759Z,100.00
2022-10-25T02:30:48.950Z,100.00
2022-10-25T02:33:26.848Z,100.00
2022-10-25T02:36:29.202Z,100.00
2022-10-25T02:39:10.468Z,100.00
2022-10-25T02:41:47.699Z,100.00
2022-10-25T02:44:34.667Z,100.00
2022-10-25T02:47:33.243Z,100.00
2022-10-25T02:50:28.706Z,100.00
2022-10-25T02:53:05.247Z,100.00
2022-10-25T02:55:41.552Z,100.00
2022-10-25T02:58:17.923Z,100.00
2022-10-25T03:00:51.094Z,100.00
2022-10-25T03:03:29.943Z,100.00
2022-10-25T03:06:00.974Z,100.00
2022-10-25T03:08:34.074Z,100.00
2022-10-25T03:11:16.399Z,100.00
2022-10-25T03:13:54.323Z,100.00
2022-10-25T03:16:29.788Z,100.00
2022-10-25T03:19:09.190Z,100.00
2022-10-25T03:21:42.724Z,100.00
2022-10-25T03:24:18.630Z,100.00
2022-10-25T03:26:53.852Z,100.00
2022-10-25T03:29:33.420Z,100.00
2022-10-25T03:32:13.611Z,100.00
2022-10-25T03:34:47.350Z,100.00
2022-10-25T03:37:21.466Z,100.00
2022-10-25T03:40:04.181Z,100.00
2022-10-25T03:42:36.856Z,100.00
2022-10-25T03:45:09.645Z,100.00
2022-10-25T03:47:40.538Z,100.00
2022-10-25T03:50:10.856Z,100.00
2022-10-25T03:52:43.381Z,100.00
2022-10-25T03:55:20.280Z,100.00
2022-10-25T03:57:57.889Z,100.00
2022-10-25T04:00:30.408Z,100.00
2022-10-25T04:03:03.473Z,100.00
2022-10-25T04:05:33.866Z,100.00
2022-10-25T04:08:04.885Z,100.00
2022-10-25T04:10:38.853Z,100.00
2022-10-25T04:13:12.351Z,100.00
2022-10-25T04:15:42.850Z,100.00
2022-10-25T04:18:16.003Z,100.00
2022-10-25T04:20:50.938Z,100.00
2022-10-25T04:23:24.599Z,100.00
2022-10-25T04:26:00.130Z,100.00
2022-10-25T04:28:31.776Z,100.00
2022-10-25T04:31:02.740Z,100.00
2022-10-25T04:33:36.978Z,100.00
2022-10-25T04:36:13.937Z,100.00
2022-10-25T04:38:46.774Z,100.00
2022-10-25T04:41:21.375Z,100.00
2022-10-25T04:43:54.288Z,100.00
2022-10-25T04:46:25.587Z,100.00
2022-10-25T04:48:58.960Z,100.00
2022-10-25T04:51:29.048Z,100.00
2022-10-25T04:54:01.536Z,100.00
2022-10-25T04:56:32.864Z,100.00
2022-10-25T04:59:04.146Z,100.00
2022-10-25T05:01:41.832Z,100.00
2022-10-25T05:04:14.097Z,100.00
2022-10-25T05:06:44.581Z,100.00
2022-10-25T05:09:15.131Z,100.00
2022-10-25T05:11:43.778Z,100.00
2022-10-25T05:14:16.887Z,100.00
2022-10-25T05:16:45.659Z,100.00
2022-10-25T05:19:13.630Z,100.00
2022-10-25T05:21:42.450Z,100.00
2022-10-25T05:24:12.154Z,100.00
2022-10-25T05:26:44.625Z,100.00
2022-10-25T05:29:15.117Z,100.00
2022-10-25T05:31:48.498Z,100.00
2022-10-25T05:34:19.250Z,100.00
2022-10-25T05:45:01.251Z,100.00
2022-10-25T05:47:31.299Z,100.00
2022-10-25T05:50:00.077Z,100.00
2022-10-25T05:52:28.160Z,100.00
2022-10-25T05:54:57.931Z,100.00
2022-10-25T05:57:27.369Z,100.00
2022-10-25T05:59:55.563Z,100.00
2022-10-25T06:02:24.818Z,100.00
2022-10-25T06:04:55.346Z,100.00
2022-10-25T06:07:24.405Z,100.00
2022-10-25T06:09:55.331Z,100.00
2022-10-25T06:12:24.708Z,100.00
2022-10-25T06:14:54.630Z,100.00
2022-10-25T06:17:24.887Z,100.00
2022-10-25T06:19:55.249Z,100.00
2022-10-25T06:22:26.516Z,100.00
2022-10-25T06:24:56.343Z,100.00
2022-10-25T06:27:24.922Z,100.00
2022-10-25T06:29:54.973Z,100.00
2022-10-25T06:32:24.607Z,100.00
2022-10-25T06:34:52.043Z,100.00
2022-10-25T06:37:20.236Z,100.00
2022-10-25T06:39:49.005Z,100.00
2022-10-25T06:42:16.907Z,100.00
2022-10-25T06:44:46.759Z,100.00
2022-10-25T06:47:20.553Z,100.00
2022-10-25T06:49:49.867Z,100.00
2022-10-25T06:52:19.237Z,100.00
2022-10-25T06:54:47.030Z,100.00
2022-10-25T06:57:16.080Z,100.00
2022-10-25T06:59:47.565Z,100.00
2022-10-25T07:02:21.581Z,100.00
2022-10-25T07:04:51.980Z,100.00
2022-10-25T07:07:22.488Z,100.00
2022-10-25T07:09:50.064Z,100.00
2022-10-25T07:12:20.763Z,100.00
2022-10-25T07:14:48.546Z,100.00
2022-10-25T07:17:17.255Z,100.00
2022-10-25T07:19:44.954Z,100.00
2022-10-25T07:22:12.490Z,100.00
2022-10-25T07:24:41.650Z,100.00
2022-10-25T07:27:11.253Z,100.00
2022-10-25T07:29:44.519Z,100.00
2022-10-25T07:32:12.502Z,100.00
2022-10-25T07:34:44.011Z,100.00
2022-10-25T07:37:14.079Z,100.00
2022-10-25T07:39:42.636Z,100.00
2022-10-25T07:42:09.866Z,100.00
2022-10-25T07:44:39.495Z,100.00
2022-10-25T07:47:08.600Z,100.00
2022-10-25T07:49:39.924Z,100.00
2022-10-25T07:52:12.409Z,100.00
2022-10-25T07:57:13.588Z,100.00
2022-10-25T07:59:42.672Z,100.00
2022-10-25T08:02:21.796Z,100.00
2022-10-25T08:04:54.267Z,100.00
2022-10-25T08:07:25.027Z,100.00
2022-10-25T08:09:56.508Z,100.00
2022-10-25T08:12:31.526Z,100.00
2022-10-25T08:15:01.375Z,100.00
2022-10-25T08:17:30.924Z,100.00
2022-10-25T08:25:33.027Z,100.00
2022-10-25T08:28:04.149Z,100.00
2022-10-25T08:30:34.198Z,100.00
2022-10-25T08:33:08.197Z,100.00
2022-10-25T08:35:41.941Z,100.00
2022-10-25T08:38:12.251Z,100.00
2022-10-25T08:40:58.240Z,100.00
2022-10-25T08:43:43.874Z,100.00
2022-10-25T08:46:20.733Z,100.00
2022-10-25T08:49:06.763Z,100.00
2022-10-25T08:51:39.919Z,100.00
2022-10-25T08:54:24.595Z,100.00
2022-10-25T08:57:14.942Z,100.00
2022-10-25T08:59:48.414Z,100.00
2022-10-25T09:02:41.637Z,100.00
2022-10-25T09:05:41.698Z,100.00
2022-10-25T09:08:50.235Z,100.00
2022-10-25T09:11:41.425Z,100.00
2022-10-25T09:14:12.026Z,100.00
2022-10-25T09:16:50.366Z,100.00
2022-10-25T09:19:25.759Z,100.00
2022-10-25T09:22:14.218Z,100.00
2022-10-25T09:24:57.612Z,100.00
2022-10-25T09:27:37.084Z,100.00
2022-10-25T09:30:12.550Z,100.00
2022-10-25T09:32:42.991Z,100.00
2022-10-25T09:35:40.797Z,100.00
2022-10-25T09:38:45.649Z,100.00
2022-10-25T09:41:46.882Z,100.00
2022-10-25T09:44:36.505Z,100.00
2022-10-25T09:47:18.449Z,100.00
2022-10-25T09:49:55.077Z,100.00
2022-10-25T09:52:37.359Z,100.00
2022-10-25T09:55:16.062Z,100.00
2022-10-25T09:57:43.062Z,100.00
2022-10-25T10:00:14.271Z,100.00
2022-10-25T10:02:41.479Z,100.00
2022-10-25T10:05:17.028Z,99.54
2022-10-25T10:07:45.740Z,99.53
2022-10-25T10:10:17.722Z,99.15
2022-10-25T10:13:02.465Z,98.80
2022-10-25T10:15:34.362Z,98.00
2022-10-25T10:18:21.368Z,97.60
2022-10-25T10:21:01.639Z,97.95
2022-10-25T10:23:31.652Z,98.76
2022-10-25T10:26:02.859Z,97.86
2022-10-25T10:28:34.243Z,96.15
2022-10-25T10:31:03.066Z,96.83
2022-10-25T10:33:32.577Z,98.44
2022-10-25T10:36:20.716Z,97.48
2022-10-25T10:38:50.423Z,95.84
2022-10-25T10:41:25.013Z,94.88
2022-10-25T10:44:07.375Z,94.94
2022-10-25T10:46:34.008Z,94.61
2022-10-25T10:49:02.680Z,95.00
2022-10-25T10:51:44.082Z,94.98
2022-10-25T10:54:16.028Z,94.61
2022-10-25T10:56:42.962Z,95.19
2022-10-25T10:59:38.771Z,92.31
2022-10-25T11:02:42.058Z,92.44
2022-10-25T11:05:37.916Z,91.20
2022-10-25T11:08:07.622Z,90.50
2022-10-25T11:10:35.904Z,88.53
2022-10-25T11:13:11.872Z,88.10
2022-10-25T11:16:04.858Z,85.94
2022-10-25T11:18:59.935Z,86.33
2022-10-25T11:21:44.864Z,84.77
2022-10-25T11:24:39.054Z,84.73
2022-10-25T11:27:33.010Z,84.25
2022-10-25T11:30:07.859Z,85.70
2022-10-25T11:32:48.897Z,84.37
2022-10-25T11:35:38.328Z,84.02
2022-10-25T11:38:43.836Z,82.71
2022-10-25T11:41:37.380Z,83.49
2022-10-25T11:44:47.656Z,84.99
2022-10-25T11:47:36.748Z,84.03
2022-10-25T11:50:23.446Z,84.08
2022-10-25T11:53:15.239Z,84.82
2022-10-25T11:56:05.693Z,85.99
2022-10-25T11:58:41.061Z,86.46
2022-10-25T12:01:26.411Z,86.89
2022-10-25T12:04:24.356Z,87.46
2022-10-25T12:07:12.919Z,86.41
2022-10-25T12:10:24.014Z,86.83
2022-10-25T12:12:55.553Z,86.85
2022-10-25T12:15:34.661Z,87.55
2022-10-25T12:18:02.362Z,87.76
2022-10-25T12:20:30.223Z,88.29
2022-10-25T12:23:02.815Z,88.19
2022-10-25T12:25:36.801Z,88.50
2022-10-25T12:28:14.454Z,87.24
2022-10-25T12:30:43.010Z,89.14
2022-10-25T12:33:45.293Z,87.86
2022-10-25T12:36:41.266Z,88.90
2022-10-25T12:39:18.846Z,89.08
2022-10-25T12:41:55.585Z,86.35
2022-10-25T12:44:58.923Z,87.58
2022-10-25T12:47:34.848Z,88.14
2022-10-25T12:50:44.822Z,88.43
2022-10-25T12:53:38.454Z,88.03
2022-10-25T12:56:38.703Z,89.39
2022-10-25T12:59:28.865Z,88.60
2022-10-25T13:02:16.668Z,87.65
2022-10-25T13:04:43.283Z,87.28
2022-10-25T13:07:12.434Z,87.05
2022-10-25T13:09:39.741Z,88.08
2022-10-25T13:12:18.273Z,84.58
2022-10-25T13:14:51.776Z,83.30
2022-10-25T13:17:18.387Z,84.86
2022-10-25T13:19:55.889Z,84.58
2022-10-25T13:22:37.378Z,83.52
2022-10-25T13:25:09.475Z,82.86
2022-10-25T13:27:37.057Z,83.56
2022-10-25T13:30:07.083Z,83.31
2022-10-25T13:32:35.776Z,82.15
2022-10-25T13:35:23.335Z,81.98
2022-10-25T13:37:54.183Z,83.14
2022-10-25T13:40:30.216Z,84.21
2022-10-25T13:43:01.757Z,83.13
2022-10-25T13:45:35.696Z,83.27
2022-10-25T13:48:10.472Z,83.30
2022-10-25T13:51:09.634Z,83.27
2022-10-25T13:53:49.117Z,83.36
2022-10-25T13:56:16.487Z,84.15
2022-10-25T13:58:50.708Z,83.86
2022-10-25T14:01:17.479Z,83.81
2022-10-25T14:03:50.806Z,81.85
2022-10-25T14:06:30.791Z,82.78
2022-10-25T14:09:11.599Z,83.11
2022-10-25T14:12:13.784Z,82.99
2022-10-25T14:14:51.846Z,82.91
2022-10-25T14:17:44.863Z,83.11
2022-10-25T14:20:31.132Z,82.43
2022-10-25T14:23:10.128Z,83.69
2022-10-25T14:25:42.341Z,83.68
2022-10-25T14:28:24.891Z,83.98
2022-10-25T14:30:58.606Z,83.53
2022-10-25T14:33:40.966Z,83.48
2022-10-25T14:36:17.768Z,84.49
2022-10-25T14:38:58.984Z,83.47
2022-10-25T14:41:30.562Z,84.60
2022-10-25T14:43:58.083Z,85.43
2022-10-25T14:46:30.159Z,85.38
2022-10-25T14:48:58.696Z,85.77
2022-10-25T14:51:32.439Z,86.30
2022-10-25T14:54:03.495Z,83.41
2022-10-25T14:56:55.651Z,83.53
2022-10-25T14:59:26.509Z,82.67
2022-10-25T15:02:28.414Z,82.52
2022-10-25T15:04:58.485Z,82.26
2022-10-25T15:07:28.379Z,81.44
2022-10-25T15:09:57.050Z,81.53
2022-10-25T15:12:26.216Z,81.88
2022-10-25T15:14:57.732Z,82.71
2022-10-25T15:17:30.602Z,83.12
2022-10-25T15:20:06.241Z,83.36
2022-10-25T15:22:44.808Z,83.26
2022-10-25T15:25:21.824Z,82.46
2022-10-25T15:27:50.312Z,83.36
2022-10-25T15:30:33.563Z,81.89
2022-10-25T15:33:00.284Z,80.94
2022-10-25T15:35:28.448Z,80.33
2022-10-25T15:37:56.299Z,79.66
2022-10-25T15:40:22.874Z,81.49
2022-10-25T15:42:49.739Z,81.89
2022-10-25T15:45:16.376Z,82.52
2022-10-25T15:47:47.376Z,84.20
2022-10-25T15:50:19.562Z,83.51
2022-10-25T15:52:47.258Z,83.91
2022-10-25T15:55:20.726Z,84.49
2022-10-25T15:57:47.960Z,85.11
2022-10-25T16:00:16.518Z,85.13
2022-10-25T16:02:44.866Z,85.38
2022-10-25T16:05:17.968Z,84.98
2022-10-25T16:07:44.672Z,85.94
2022-10-25T16:10:11.835Z,87.06
2022-10-25T16:12:47.920Z,87.14
2022-10-25T16:15:17.727Z,87.02
2022-10-25T16:17:50.169Z,88.26
2022-10-25T16:20:24.631Z,90.18
2022-10-25T16:22:52.007Z,91.28
2022-10-25T16:25:20.241Z,90.67
2022-10-25T16:27:47.479Z,92.17
2022-10-25T16:30:19.661Z,92.62
2022-10-25T16:32:47.678Z,93.46
2022-10-25T16:35:15.808Z,94.71
2022-10-25T16:37:43.075Z,94.64
2022-10-25T16:40:15.878Z,95.26
2022-10-25T16:42:42.837Z,95.66
2022-10-25T16:45:19.027Z,94.98
2022-10-25T16:47:46.892Z,95.10
2022-10-25T16:50:14.781Z,95.84
2022-10-25T16:52:42.031Z,95.43
2022-10-25T16:55:09.762Z,95.38
2022-10-25T16:57:36.416Z,97.75
2022-10-25T17:00:07.270Z,98.20
2022-10-25T17:02:38.314Z,98.74
2022-10-25T17:05:06.398Z,98.76
2022-10-25T17:07:32.989Z,97.15
2022-10-25T17:10:01.796Z,96.25
2022-10-25T17:12:28.429Z,95.34
2022-10-25T17:14:54.949Z,93.95
2022-10-25T17:19:47.984Z,93.59
2022-10-25T17:22:14.793Z,93.68
2022-10-25T17:24:41.363Z,93.91
2022-10-25T17:27:08.028Z,93.46
2022-10-25T17:29:34.595Z,93.44
2022-10-25T17:32:01.160Z,92.99
2022-10-25T17:34:27.879Z,92.55
2022-10-25T17:36:54.448Z,92.72
2022-10-25T17:39:21.023Z,92.66
2022-10-25T17:41:47.644Z,92.71
2022-10-25T17:44:14.251Z,93.45
2022-10-25T17:46:40.968Z,94.10
2022-10-25T17:49:07.609Z,94.12
2022-10-25T17:51:35.571Z,94.28
2022-10-25T17:54:03.047Z,93.66
2022-10-25T17:56:33.027Z,93.48
2022-10-25T17:59:07.914Z,93.57
2022-10-25T18:01:35.314Z,94.15
2022-10-25T18:04:02.027Z,94.81
2022-10-25T18:06:28.633Z,94.97
2022-10-25T18:08:58.868Z,95.84
2022-10-25T18:11:28.142Z,95.12
2022-10-25T18:13:57.053Z,95.20
2022-10-25T18:16:27.606Z,95.85
2022-10-25T18:18:56.201Z,95.55
2022-10-25T18:21:23.220Z,95.38
2022-10-25T18:23:54.381Z,95.42
2022-10-25T18:26:20.969Z,95.52
2022-10-25T18:28:47.705Z,95.38
2022-10-25T18:31:14.325Z,95.06
2022-10-25T18:33:43.303Z,95.04
2022-10-25T18:36:17.691Z,94.84
2022-10-25T18:38:45.509Z,95.38
2022-10-25T18:41:19.169Z,95.91
2022-10-25T18:43:49.269Z,96.20
2022-10-25T18:46:16.179Z,96.09
2022-10-25T18:48:45.067Z,96.06
2022-10-25T18:51:13.750Z,96.72
2022-10-25T18:53:40.448Z,96.08
2022-10-25T18:56:12.041Z,96.33
2022-10-25T18:58:39.526Z,96.84
2022-10-25T19:01:11.558Z,97.62
2022-10-25T19:03:38.822Z,97.55
2022-10-25T19:06:06.074Z,97.04
2022-10-25T19:08:34.125Z,96.72
2022-10-25T19:11:18.801Z,97.61
2022-10-25T19:13:48.910Z,97.67
2022-10-25T19:16:17.981Z,98.17
2022-10-25T19:18:44.679Z,97.81
2022-10-25T19:21:13.220Z,97.50
2022-10-25T19:23:42.593Z,98.15
2022-10-25T19:26:11.358Z,99.06
2022-10-25T19:28:38.211Z,98.33
2022-10-25T19:31:10.368Z,98.21
2022-10-25T19:33:36.912Z,98.69
2022-10-25T19:36:04.735Z,98.87
2022-10-25T19:38:31.352Z,99.05
2022-10-25T19:41:02.493Z,99.60
2022-10-25T19:43:29.444Z,99.80
2022-10-25T19:45:58.404Z,100.00
2022-10-25T19:48:25.505Z,99.99
2022-10-25T19:50:52.564Z,99.76
2022-10-25T19:53:19.268Z,99.19
2022-10-25T19:55:57.384Z,99.09
2022-10-25T19:58:24.657Z,99.17
2022-10-25T20:01:03.377Z,99.10
2022-10-25T20:03:30.535Z,98.82
2022-10-25T20:06:03.068Z,98.84
2022-10-25T20:08:33.477Z,98.67
2022-10-25T20:11:00.636Z,98.95
2022-10-25T20:13:27.308Z,99.53
2022-10-25T20:15:55.725Z,99.13
2022-10-25T20:18:24.985Z,99.71
2022-10-25T20:20:58.133Z,99.45
2022-10-25T20:23:24.696Z,99.50
2022-10-25T20:25:51.359Z,100.00
2022-10-25T20:28:18.138Z,99.71
2022-10-25T20:30:45.035Z,100.00
2022-10-25T20:33:11.678Z,100.00
2022-10-25T20:35:39.792Z,100.00
2022-10-25T20:38:07.638Z,100.00
2022-10-25T20:40:34.755Z,100.00
2022-10-25T20:43:01.460Z,100.00
2022-10-25T20:45:29.928Z,100.00
2022-10-25T20:47:58.033Z,100.00
2022-10-25T20:50:26.344Z,100.00
2022-10-25T20:53:11.053Z,100.00
2022-10-25T20:55:38.233Z,100.00
2022-10-25T20:58:05.297Z,100.00
2022-10-25T21:00:32.781Z,100.00
2022-10-25T21:02:59.815Z,100.00
2022-10-25T21:05:26.591Z,100.00
2022-10-25T21:07:53.315Z,100.00
2022-10-25T21:10:19.863Z,100.00
2022-10-25T21:12:46.478Z,100.00
2022-10-25T21:15:13.108Z,100.00
2022-10-25T21:17:39.639Z,100.00
2022-10-25T21:20:07.101Z,100.00
2022-10-25T21:22:33.753Z,100.00
2022-10-25T21:25:00.419Z,100.00
2022-10-25T21:27:27.010Z,100.00
2022-10-25T21:29:53.685Z,100.00
2022-10-25T21:32:20.694Z,100.00
2022-10-25T21:35:03.261Z,100.00
2022-10-25T21:37:49.096Z,100.00
2022-10-25T21:40:25.296Z,100.00
2022-10-25T21:43:03.314Z,100.00
2022-10-25T21:45:58.190Z,100.00
2022-10-25T21:48:48.861Z,100.00
2022-10-25T21:51:39.280Z,100.00
2022-10-25T21:54:15.134Z,100.00
2022-10-25T21:56:42.277Z,100.00
2022-10-25T21:59:08.887Z,100.00
2022-10-25T22:01:35.555Z,100.00
2022-10-25T22:04:02.388Z,100.00
2022-10-25T22:06:29.108Z,100.00
2022-10-25T22:08:56.448Z,100.00
2022-10-25T22:11:26.117Z,100.00
2022-10-25T22:13:59.883Z,100.00
2022-10-25T22:16:27.361Z,100.00
2022-10-25T22:19:12.841Z,100.00
2022-10-25T22:21:39.956Z,100.00
2022-10-25T22:24:10.979Z,100.00
2022-10-25T22:26:39.381Z,100.00
2022-10-25T22:29:09.493Z,100.00
2022-10-25T22:31:36.352Z,100.00
2022-10-25T22:34:05.294Z,100.00
2022-10-25T22:36:34.897Z,100.00
2022-10-25T22:39:01.472Z,100.00
2022-10-25T22:41:29.675Z,100.00
2022-10-25T22:43:57.116Z,100.00
2022-10-25T22:46:29.213Z,100.00
2022-10-25T22:48:58.082Z,100.00
2022-10-25T22:51:26.883Z,100.00
2022-10-25T22:53:53.645Z,100.00
2022-10-25T22:56:22.791Z,100.00
2022-10-25T22:58:54.982Z,100.00
2022-10-25T23:01:26.549Z,100.00
2022-10-25T23:03:55.032Z,100.00
2022-10-25T23:06:27.330Z,100.00
2022-10-25T23:08:56.432Z,100.00
2022-10-25T23:11:29.315Z,100.00
2022-10-25T23:14:00.340Z,100.00
2022-10-25T23:16:28.309Z,100.00
2022-10-25T23:18:55.016Z,100.00
2022-10-25T23:21:24.091Z,100.00
2022-10-25T23:23:52.754Z,100.00
2022-10-25T23:26:22.126Z,100.00
2022-10-25T23:28:49.007Z,100.00
2022-10-25T23:31:16.671Z,100.00
2022-10-25T23:33:43.877Z,100.00
2022-10-25T23:36:15.758Z,100.00
2022-10-25T23:38:43.744Z,100.00
2022-10-25T23:41:10.822Z,100.00
2022-10-25T23:43:37.451Z,100.00
2022-10-25T23:46:05.092Z,100.00
2022-10-25T23:48:32.079Z,100.00
2022-10-25T23:53:28.735Z,100.00
2022-10-25T23:55:55.684Z,100.00
2022-10-25T23:58:23.410Z,100.00
